< Typhoon 200405 2004 Season Typhoon 200407 >
Typhoon 200406 (DIANMU)
General InformationTrack Information on Google MapsDetailed Wind InformationAccess Analytics MapList of All Images || NewsDisaster Info.WeblogTrackbackTyphoon FrontResourceGoogle EarthGE AnimationAtom FeedGeoJSON
Detalied Best Track (Time Zone = UTC)
Year Month Day Hour Lat. Long. Pressure (hPa) Wind (kt) Class Image Chart
2004 6 11 18 6.5 139.1 1006 0 2 Image Chart
2004 6 12 00 6.8 138.5 1006 0 2 Image Chart
2004 6 12 06 7.4 138.0 1006 0 2 Image Chart
2004 6 12 12 7.8 137.5 1006 0 2 Image Chart
2004 6 12 18 8.0 137.2 1004 0 2 Image Chart
2004 6 13 00 8.6 137.0 1004 0 2 Image Chart
2004 6 13 06 9.1 136.6 1000 0 2 Image Chart
2004 6 13 12 9.3 136.4 998 35 3 Image Chart
2004 6 13 18 9.0 136.4 994 40 3 Image Chart
2004 6 14 00 9.1 136.7 990 45 3 Image Chart
2004 6 14 06 9.4 136.8 985 50 4 Image Chart
2004 6 14 12 9.9 137.0 980 55 4 Image Chart
2004 6 14 18 10.7 137.3 970 65 5 Image Chart
2004 6 15 00 11.2 137.3 960 70 5 Image Chart
2004 6 15 06 12.0 137.2 950 80 5 Image Chart
2004 6 15 12 12.7 136.8 935 90 5 Image Chart
2004 6 15 18 13.5 136.8 925 95 5 Image Chart
2004 6 16 00 14.3 136.5 915 100 5 Image Chart
2004 6 16 06 15.0 136.0 915 100 5 Image Chart
2004 6 16 12 15.7 135.6 915 100 5 Image Chart
2004 6 16 18 16.6 135.2 915 100 5 Image Chart
2004 6 17 00 17.1 134.2 915 100 5 Image Chart
2004 6 17 06 17.4 133.5 915 100 5 Image Chart
2004 6 17 12 17.7 132.9 925 95 5 Image Chart
2004 6 17 18 18.0 132.1 930 95 5 Image Chart
2004 6 18 00 18.5 131.6 930 95 5 Image Chart
2004 6 18 06 19.3 131.2 925 95 5 Image Chart
2004 6 18 12 20.2 130.3 925 95 5 Image Chart
2004 6 18 18 21.2 129.8 925 95 5 Image Chart
2004 6 19 00 22.3 129.4 930 95 5 Image Chart
2004 6 19 06 23.4 129.1 935 90 5 Image Chart
2004 6 19 09 23.9 129.1 935 90 5 Image Chart
2004 6 19 12 24.5 129.2 940 90 5 Image Chart
2004 6 19 15 25.1 129.2 940 90 5 Image Chart
2004 6 19 18 25.6 129.4 945 85 5 Image Chart
2004 6 19 21 26.2 129.5 945 85 5 Image Chart
2004 6 20 00 26.9 129.7 945 85 5 Image Chart
2004 6 20 03 27.6 130.1 945 85 5 Image Chart
2004 6 20 06 28.2 130.4 955 75 5 Image Chart
2004 6 20 09 28.8 130.8 955 75 5 Image Chart
2004 6 20 12 29.5 131.3 955 75 5 Image Chart
2004 6 20 15 30.2 131.7 955 75 5 Image Chart
2004 6 20 18 31.1 132.3 960 70 5 Image Chart
2004 6 20 21 31.9 132.9 960 70 5 Image Chart
2004 6 21 00 33.1 133.9 965 70 5 Image Chart
2004 6 21 03 34.3 134.7 970 60 4 Image Chart
2004 6 21 04 34.6 134.9 970 60 4 Image Chart
2004 6 21 06 35.7 135.4 975 55 4 Image Chart
2004 6 21 09 37.4 136.3 980 50 4 Image Chart
2004 6 21 12 38.8 137.4 985 45 3 Image Chart
2004 6 21 15 40.2 138.4 985 45 3 Image Chart
2004 6 21 18 41.3 139.1 986 0 6 Image Chart
2004 6 22 00 42.4 139.2 988 0 6 Image Chart
2004 6 22 06 44.0 140.3 990 0 6 Image Chart
2004 6 22 12 45.6 141.4 990 0 6 Image Chart
2004 6 22 18 47.0 143.4 990 0 6 Image Chart
2004 6 23 00 48.3 145.1 990 0 6 Image Chart
2004 6 23 06 49.0 146.8 990 0 6 Image Chart
2004 6 23 12 49.8 148.3 992 0 6 Image Chart
2004 6 23 18 50.5 149.9 994 0 6 Image Chart
2004 6 24 00 50.9 151.0 996 0 6 Image Chart
2004 6 24 06 51.0 151.3 996 0 6 Image Chart
2004 6 24 12 50.1 152.9 1000 0 6 Image Chart
2004 6 24 18 49.0 156.0 1002 0 6 Image Chart
2004 6 25 00 48.5 158.0 1002 0 6 Image Chart
2004 6 25 06 48.3 159.6 1004 0 6 Image Chart
2004 6 25 12 48.1 161.0 1006 0 6 Image Chart
2004 6 25 18 48.0 162.3 1006 0 6 Image Chart
2004 6 26 00 47.9 163.8 1008 0 6 Image Chart
2004 6 26 06 47.9 165.8 1008 0 6 Image Chart
2004 6 26 12 48.2 166.7 1008 0 6 Image Chart
2004 6 26 18 48.5 167.8 1006 0 6 Image Chart
2004 6 27 00 47.9 169.3 1004 0 6 Image Chart
2004 6 27 06 48.4 170.9 1000 0 6 Image Chart
2004 6 27 12 48.9 172.6 996 0 6 Image Chart
2004 6 27 18 49.0 174.9 996 0 6 Image Chart
2004 6 28 00 48.9 176.5 996 0 6 Image Chart
2004 6 28 06 48.6 178.3 996 0 6 Image Chart
2004 6 28 12 48.2 180.2 996 0 6 Image Chart
Japan Meteorological Agency Best Track Data | Correction Date : 2006-01-18
< Typhoon 200405 2004 Season Typhoon 200407 >

Help